EET,Max TemperatureF,Mean TemperatureF,Min TemperatureF,Max Dew PointF,MeanDew PointF,Min DewpointF,Max Humidity, Mean Humidity, Min Humidity, Max Sea Level PressureIn, Mean Sea Level PressureIn, Min Sea Level PressureIn, Max VisibilityMiles, Mean VisibilityMiles, Min VisibilityMiles, Max Wind SpeedMPH, Mean Wind SpeedMPH, Max Gust SpeedMPH,PrecipitationIn, CloudCover, Events, WindDirDegrees
2011-10-1,75,63,51,54,49,41,100,70,29,29.95,29.88,29.80,6,6,6,16,5,,0.00,4,,211
2011-10-2,75,60,46,50,44,34,100,62,22,30.01,29.98,29.95,,,,9,4,,0.00,,,215
2011-10-3,78,61,44,50,40,28,93,53,17,30.01,29.98,29.92,6,6,6,12,5,,0.00,1,,249
2011-10-4,77,60,42,43,37,28,87,48,17,30.09,30.03,29.98,,,,7,4,,0.00,,,328
2011-10-5,80,60,41,43,35,25,93,49,13,30.06,30.01,29.95,6,5,5,7,3,,0.00,,,237
2011-10-6,84,63,42,43,34,21,87,45,10,30.09,30.03,29.98,,,,8,3,,0.00,,,23
2011-10-7,84,64,44,43,35,23,81,45,11,30.04,29.98,29.92,5,5,5,7,3,,0.00,,,30
2011-10-8,84,66,48,48,39,30,76,46,14,30.01,29.97,29.92,6,6,6,10,4,,0.00,4,,69
2011-10-9,84,68,53,50,47,45,82,51,25,30.09,30.04,30.01,6,6,4,8,5,,0.00,4,,15
2011-10-10,86,70,53,52,47,43,82,51,22,30.09,30.04,29.98,6,6,6,8,3,,0.00,2,,42
2011-10-11,89,71,53,52,48,43,82,49,20,30.04,29.99,29.95,6,6,6,7,3,,0.00,6,,48
2011-10-12,91,75,59,50,44,34,72,37,13,29.95,29.89,29.83,6,6,6,17,7,,0.00,4,,118
2011-10-13,75,65,55,59,53,43,94,64,31,30.01,29.91,29.86,6,6,5,18,7,,0.00,3,Rain-Thunderstorm,237
2011-10-14,78,64,50,54,48,41,94,63,28,30.12,30.05,30.01,6,6,6,9,4,,0.00,4,,21
2011-10-15,80,66,53,54,48,43,88,57,26,30.12,30.06,29.98,6,6,6,10,5,,0.00,5,,41
2011-10-16,84,70,57,52,47,39,82,50,20,29.98,29.91,29.86,6,6,6,12,6,,0.00,6,,224
2011-10-17,84,68,53,52,48,45,82,52,25,29.98,29.94,29.89,6,6,5,9,4,,0.00,2,,40
2011-10-18,77,64,50,50,47,45,88,58,32,30.09,30.03,29.95,6,6,6,12,4,,0.00,5,,216
2011-10-19,62,54,46,55,49,41,94,75,52,30.09,30.01,29.95,6,6,4,24,5,,0.00,5,Rain-Thunderstorm,175
2011-10-20,64,52,41,41,36,28,81,59,26,30.09,30.05,30.01,6,6,6,7,5,,0.00,2,,179
2011-10-21,68,52,37,41,35,27,93,58,23,30.18,30.10,30.06,,,,7,4,,0.00,,,186
2011-10-22,73,56,39,45,40,36,93,63,27,30.12,30.05,30.01,,,,6,2,,0.00,,,29
2011-10-23,75,58,41,45,40,32,93,60,21,30.04,30.01,29.95,6,6,6,7,2,,0.00,2,,34
2011-10-24,75,58,41,43,39,32,93,54,21,30.09,30.05,30.01,6,6,6,12,4,,0.00,6,,26
2011-10-25,73,62,50,45,41,36,76,51,25,30.04,29.96,29.89,6,6,6,13,5,,0.00,6,,97
2011-10-26,71,56,42,43,40,36,87,59,27,29.95,29.88,29.83,6,6,6,7,3,,0.00,5,,212
2011-10-27,60,52,44,50,45,39,93,71,54,30.06,29.98,29.86,6,6,5,14,6,,0.00,6,Rain,62
2011-10-28,64,50,37,46,42,36,100,73,45,30.09,30.03,29.98,6,6,1,7,3,,0.00,6,Fog,196
2011-10-29,66,58,50,41,36,30,67,43,30,29.98,29.94,29.89,6,6,6,15,9,,0.00,6,,18
2011-10-30,68,57,46,41,36,32,71,52,26,29.98,29.93,29.89,6,6,6,9,5,,0.00,4,,177
2011-10-31,62,52,41,41,36,32,87,61,34,30.04,30.00,29.95,6,6,6,13,4,16,0.00,5,,121